AirNav   ATP
 
 330 users online  

99A Smith's International Airport
Sherrill, Arkansas, USA

GOING TO SHERRILL?


FAA INFORMATION EFFECTIVE 01 FEBRUARY 2018

Location

FAA Identifier: 99A
Lat/Long: 34-24-22.4000N / 091-57-31.5000W
34-24.373333N / 091-57.525000W
34.4062222 / -91.9587500
(estimated)
Elevation: 218 ft. / 66 m (estimated)
Variation: 03E (1990)
From city: 1 mile NW of SHERRILL, AR
Time zone: UTC -6 (UTC -5 during Daylight Saving Time)
Zip code: 72152

Airport Operations

Airport use: Open to the public
Activation date: 12/1991
Control tower: no
ARTCC: MEMPHIS CENTER
FSS: JONESBORO FLIGHT SERVICE STATION
NOTAMs facility: JBR (NOTAM-D service available)
Attendance: UNATNDD
Wind indicator: yes
Segmented circle: no

Airport Communications

CTAF: 122.9
WX ASOS at PBF (14 nm S): 120.775 (870-536-0228)

Nearby radio navigation aids

VOR radial/distance  VOR name  Freq  Var
PBFr346/9.7PINE BLUFF VOR/DME116.0004E
LITr141/19.6LITTLE ROCK VORTAC113.9005E

 
NDB name  Hdg/Dist  Freq  Var  ID
TONEYVILLE174/32.929001ETYV - -.-- ...-

Airport Services

Runway Information

Runway 17/35

Dimensions: 3800 x 75 ft. / 1158 x 23 m
Surface: turf, in good condition
RUNWAY 17  RUNWAY 35
Latitude: 34-24.685667N34-24.059333N
Longitude: 091-57.525000W091-57.525000W
Traffic pattern: leftright
Obstructions: 15 ft. road50 ft. trees

Airport Ownership and Management from official FAA records

Ownership: Privately-owned
Owner: WILLIE C. SMITH
9010 N. HWY 15
SHERRILL, AR 72152-8981
Phone 870-773-4479
Manager: BEVERLY A. SMITH
9010 N. HWY 15
SHERRILL, AR 72152
Phone (870) 766-4619

Airport Operational Statistics

Aircraft based on the field: 7
Single engine airplanes: 6
Multi engine airplanes: 1
    
Aircraft operations: 200/year *
50% transient general aviation
50% local general aviation
* for 12-month period ending 31 August 2016

Instrument Procedures

There are no published instrument procedures at 99A.

Some nearby airports with instrument procedures:

KPBF - Pine Bluff Regional Airport Grider Field (14 nm S)
9M8 - Sheridan Municipal Airport (20 nm W)
KSGT - Stuttgart Municipal Airport / Carl Humphrey Field (22 nm NE)
KLIT - Bill and Hillary Clinton National Airport/Adams Field (23 nm NW)
M73 - Almyra Municipal Airport (24 nm E)
 
Loc | Ops | Rwys | IFR | FBO | Links
Com | Nav | Svcs | Stats | Notes

Fly Arkansas
AirBoss

 
Area around 99A (Smith's International Airport)
 
Road maps at: MapQuest Bing Google
 
Aerial photo
WARNING: Photo may not be current or correct
Aerial photo of 99A (Smith's International Airport)
Photo courtesy of the Arkansas Department of Aeronautics
Taken in the Spring of 2007

Do you have a better or more recent aerial photo of Smith's International Airport that you would like to share? If so, please send us your photo.

 
Sectional chart

 
Airport distance calculator
Flying to Smith's International Airport? Find the distance to fly.

From to 99A

Sunrise and sunset
Times for 21-Feb-2018
 Local
(UTC-6)
 Zulu
(UTC)
Morning civil twilight06:2212:22
Sunrise06:4712:47
Sunset17:5623:56
Evening civil twilight18:2100:21

Current date and time
Zulu (UTC)  21-Feb-2018 08:59:03
Local (UTC-6)  21-Feb-2018 02:59:03
 
METAR
KPBF 
13nm S 
210853Z AUTO 19007KT 10SM FEW035 BKN045 BKN085 21/18 A3011 RMK AO2 SLP193 T02110183 51017
KSGT 
23nm NE 
210838Z AUTO 01016KT 10SM -RA FEW009 BKN017 OVC022 16/14 A3015 RMK AO2 TSB01E16RAB19 P0005
KLIT 
24nm NW 
210853Z 34010KT 3SM -RA BR SCT008 BKN012 OVC050 13/13 A3017 RMK AO2 SLP218 VIS 1V5 P0018 60067 T01330133 51028
TAF
KPBF 
13nm S 
210538Z 2106/2206 19010G18KT P6SM VCSH SCT025 OVC050 WS020/19040KT TEMPO 2106/2108 5SM -RA BR SCT008 OVC030 FM210800 36010G16KT 6SM -RA BR BKN020 OVC040 TEMPO 2108/2112 2SM TSRA BR OVC015CB FM211200 36008G15KT 4SM -RA BR VCTS BKN008 OVC020CB
NOTAMs
Click for the latest NOTAMs
NOTAMs are issued by the DoD/FAA and will open in a separate window not controlled by AirNav.

 

 
 

Would you like to see your business listed on this page?

 If your business provides an interesting product or service to pilots, flight crews, aircraft, or users of the Smith's International Airport, you should consider listing it here.  To start the listing process, click on the button below
 
Add a business
 

Other Pages about Smith's International Airport

Update a link
 
Copyright © AirNav, LLC. All rights reserved. Privacy Policy  Contact